sensor_id;sensor_type;location;lat;lon;timestamp;pressure;altitude;pressure_sealevel;temperature;humidity
34034;BME280;63481;52.588;22.472;2022-12-13T00:00:09;98998.41;;;-1.74;91.24
34034;BME280;63481;52.588;22.472;2022-12-13T00:01:08;98998.06;;;-1.75;91.27
34034;BME280;63481;52.588;22.472;2022-12-13T00:01:54;99001.47;;;-1.78;91.33
34034;BME280;63481;52.588;22.472;2022-12-13T00:02:44;99004.91;;;-1.78;91.29
34034;BME280;63481;52.588;22.472;2022-12-13T00:03:34;98991.34;;;-1.82;91.28
34034;BME280;63481;52.588;22.472;2022-12-13T00:04:24;98995.91;;;-1.84;91.30
34034;BME280;63481;52.588;22.472;2022-12-13T00:05:14;99002.78;;;-1.83;91.28
34034;BME280;63481;52.588;22.472;2022-12-13T00:06:07;99007.84;;;-1.81;91.23
34034;BME280;63481;52.588;22.472;2022-12-13T00:06:57;99010.11;;;-1.82;91.19
34034;BME280;63481;52.588;22.472;2022-12-13T00:07:47;99003.41;;;-1.85;91.13
34034;BME280;63481;52.588;22.472;2022-12-13T00:08:37;99002.09;;;-1.85;91.13
34034;BME280;63481;52.588;22.472;2022-12-13T00:09:27;99004.06;;;-1.87;91.07
34034;BME280;63481;52.588;22.472;2022-12-13T00:10:17;99008.15;;;-1.88;91.07
34034;BME280;63481;52.588;22.472;2022-12-13T00:11:09;99004.85;;;-1.90;91.05
34034;BME280;63481;52.588;22.472;2022-12-13T00:11:58;99005.20;;;-1.89;91.04
34034;BME280;63481;52.588;22.472;2022-12-13T00:12:48;99015.30;;;-1.90;90.97
34034;BME280;63481;52.588;22.472;2022-12-13T00:13:39;99013.34;;;-1.92;90.94
34034;BME280;63481;52.588;22.472;2022-12-13T00:14:29;99012.86;;;-1.92;90.91
34034;BME280;63481;52.588;22.472;2022-12-13T00:15:21;99014.17;;;-1.92;90.88
34034;BME280;63481;52.588;22.472;2022-12-13T00:16:12;99004.55;;;-1.91;90.88
34034;BME280;63481;52.588;22.472;2022-12-13T00:17:02;99021.52;;;-1.91;90.83
34034;BME280;63481;52.588;22.472;2022-12-13T00:17:51;99014.52;;;-1.91;90.80
34034;BME280;63481;52.588;22.472;2022-12-13T00:18:41;99023.14;;;-1.90;90.78
34034;BME280;63481;52.588;22.472;2022-12-13T00:19:31;99023.66;;;-1.91;90.78
34034;BME280;63481;52.588;22.472;2022-12-13T00:20:21;99026.27;;;-1.91;90.79
34034;BME280;63481;52.588;22.472;2022-12-13T00:21:12;99022.83;;;-1.91;90.78
34034;BME280;63481;52.588;22.472;2022-12-13T00:22:02;99020.70;;;-1.92;90.81
34034;BME280;63481;52.588;22.472;2022-12-13T00:22:52;99023.48;;;-1.93;90.81
34034;BME280;63481;52.588;22.472;2022-12-13T00:23:41;99029.84;;;-1.92;90.76
34034;BME280;63481;52.588;22.472;2022-12-13T00:24:31;99031.15;;;-1.92;90.72
34034;BME280;63481;52.588;22.472;2022-12-13T00:25:22;99029.02;;;-1.92;90.71
34034;BME280;63481;52.588;22.472;2022-12-13T00:26:14;99024.78;;;-1.93;90.70
34034;BME280;63481;52.588;22.472;2022-12-13T00:27:03;99023.63;;;-1.95;90.62
34034;BME280;63481;52.588;22.472;2022-12-13T00:27:53;99036.52;;;-1.97;90.59
34034;BME280;63481;52.588;22.472;2022-12-13T00:28:43;99031.94;;;-1.99;90.58
34034;BME280;63481;52.588;22.472;2022-12-13T00:29:34;99023.76;;;-2.00;90.57
34034;BME280;63481;52.588;22.472;2022-12-13T00:30:24;99015.75;;;-2.03;90.55
34034;BME280;63481;52.588;22.472;2022-12-13T00:31:15;99025.37;;;-2.03;90.49
34034;BME280;63481;52.588;22.472;2022-12-13T00:32:05;99027.33;;;-2.09;90.50
34034;BME280;63481;52.588;22.472;2022-12-13T00:32:55;99029.12;;;-2.10;90.51
34034;BME280;63481;52.588;22.472;2022-12-13T00:33:45;99034.00;;;-2.11;90.46
34034;BME280;63481;52.588;22.472;2022-12-13T00:34:36;99036.12;;;-2.10;90.41
34034;BME280;63481;52.588;22.472;2022-12-13T00:35:26;99036.78;;;-2.12;90.31
34034;BME280;63481;52.588;22.472;2022-12-13T00:36:17;99046.05;;;-2.14;90.24
34034;BME280;63481;52.588;22.472;2022-12-13T00:37:07;99037.91;;;-2.15;90.23
34034;BME280;63481;52.588;22.472;2022-12-13T00:37:57;99041.96;;;-2.16;90.22
34034;BME280;63481;52.588;22.472;2022-12-13T00:38:47;99039.01;;;-2.17;90.18
34034;BME280;63481;52.588;22.472;2022-12-13T00:39:39;99044.41;;;-2.19;90.17
34034;BME280;63481;52.588;22.472;2022-12-13T00:40:30;99041.79;;;-2.19;90.12
34034;BME280;63481;52.588;22.472;2022-12-13T00:41:20;99043.27;;;-2.20;90.12
34034;BME280;63481;52.588;22.472;2022-12-13T00:42:10;99041.95;;;-2.20;90.12
34034;BME280;63481;52.588;22.472;2022-12-13T00:43:01;99051.72;;;-2.22;90.09
34034;BME280;63481;52.588;22.472;2022-12-13T00:43:51;99044.53;;;-2.24;90.10
34034;BME280;63481;52.588;22.472;2022-12-13T00:44:42;99043.57;;;-2.23;90.06
34034;BME280;63481;52.588;22.472;2022-12-13T00:45:32;99056.28;;;-2.24;89.99
34034;BME280;63481;52.588;22.472;2022-12-13T00:46:23;99067.06;;;-2.23;89.96
34034;BME280;63481;52.588;22.472;2022-12-13T00:47:13;99053.02;;;-2.22;89.88
34034;BME280;63481;52.588;22.472;2022-12-13T00:48:04;99059.23;;;-2.23;89.85
34034;BME280;63481;52.588;22.472;2022-12-13T00:48:55;99050.72;;;-2.25;89.78
34034;BME280;63481;52.588;22.472;2022-12-13T00:49:45;99057.06;;;-2.28;89.77
34034;BME280;63481;52.588;22.472;2022-12-13T00:50:36;99051.84;;;-2.28;89.74
34034;BME280;63481;52.588;22.472;2022-12-13T00:51:27;99063.59;;;-2.28;89.72
34034;BME280;63481;52.588;22.472;2022-12-13T00:52:18;99067.51;;;-2.28;89.72
34034;BME280;63481;52.588;22.472;2022-12-13T00:53:08;99048.92;;;-2.29;89.73
34034;BME280;63481;52.588;22.472;2022-12-13T00:53:59;99052.84;;;-2.29;89.73
34034;BME280;63481;52.588;22.472;2022-12-13T00:54:49;99060.80;;;-2.30;89.73
34034;BME280;63481;52.588;22.472;2022-12-13T00:55:39;99059.36;;;-2.29;89.70
34034;BME280;63481;52.588;22.472;2022-12-13T00:56:30;99052.49;;;-2.30;89.69
34034;BME280;63481;52.588;22.472;2022-12-13T00:57:20;99054.28;;;-2.30;89.71
34034;BME280;63481;52.588;22.472;2022-12-13T00:58:10;99063.90;;;-2.31;89.73
34034;BME280;63481;52.588;22.472;2022-12-13T00:59:01;99055.41;;;-2.33;89.74
34034;BME280;63481;52.588;22.472;2022-12-13T00:59:51;99059.80;;;-2.33;89.70
34034;BME280;63481;52.588;22.472;2022-12-13T01:00:42;99060.80;;;-2.34;89.75
34034;BME280;63481;52.588;22.472;2022-12-13T01:01:33;99057.36;;;-2.35;89.73
34034;BME280;63481;52.588;22.472;2022-12-13T01:02:24;99058.19;;;-2.34;89.73
34034;BME280;63481;52.588;22.472;2022-12-13T01:03:15;99063.72;;;-2.33;89.71
34034;BME280;63481;52.588;22.472;2022-12-13T01:04:12;99056.87;;;-2.34;89.74
34034;BME280;63481;52.588;22.472;2022-12-13T01:05:03;99049.88;;;-2.34;89.75
34034;BME280;63481;52.588;22.472;2022-12-13T01:05:53;99065.19;;;-2.35;89.77
34034;BME280;63481;52.588;22.472;2022-12-13T01:06:44;99063.41;;;-2.34;89.73
34034;BME280;63481;52.588;22.472;2022-12-13T01:07:35;99058.32;;;-2.36;89.71
34034;BME280;63481;52.588;22.472;2022-12-13T01:08:26;99064.23;;;-2.34;89.60
34034;BME280;63481;52.588;22.472;2022-12-13T01:09:17;99061.28;;;-2.35;89.54
34034;BME280;63481;52.588;22.472;2022-12-13T01:10:08;99073.19;;;-2.36;89.47
34034;BME280;63481;52.588;22.472;2022-12-13T01:10:58;99065.36;;;-2.36;89.46
34034;BME280;63481;52.588;22.472;2022-12-13T01:11:49;99069.11;;;-2.35;89.42
34034;BME280;63481;52.588;22.472;2022-12-13T01:12:39;99066.98;;;-2.35;89.43
34034;BME280;63481;52.588;22.472;2022-12-13T01:13:29;99071.88;;;-2.36;89.36
34034;BME280;63481;52.588;22.472;2022-12-13T01:14:19;99064.84;;;-2.36;89.32
34034;BME280;63481;52.588;22.472;2022-12-13T01:15:10;99072.20;;;-2.35;89.24
34034;BME280;63481;52.588;22.472;2022-12-13T01:16:03;99062.09;;;-2.34;89.05
34034;BME280;63481;52.588;22.472;2022-12-13T01:16:54;99065.19;;;-2.35;88.94
34034;BME280;63481;52.588;22.472;2022-12-13T01:17:44;99062.23;;;-2.36;88.85
34034;BME280;63481;52.588;22.472;2022-12-13T01:18:36;99061.76;;;-2.35;88.85
34034;BME280;63481;52.588;22.472;2022-12-13T01:19:27;99062.70;;;-2.41;88.85
34034;BME280;63481;52.588;22.472;2022-12-13T01:20:17;99071.02;;;-2.41;88.83
34034;BME280;63481;52.588;22.472;2022-12-13T01:21:11;99063.67;;;-2.42;88.77
34034;BME280;63481;52.588;22.472;2022-12-13T01:22:02;99061.56;;;-2.42;88.68
34034;BME280;63481;52.588;22.472;2022-12-13T01:22:53;99071.80;;;-2.45;88.63
34034;BME280;63481;52.588;22.472;2022-12-13T01:23:43;99063.80;;;-2.47;88.61
34034;BME280;63481;52.588;22.472;2022-12-13T01:24:34;99064.14;;;-2.46;88.51
34034;BME280;63481;52.588;22.472;2022-12-13T01:25:24;99060.69;;;-2.51;88.46
34034;BME280;63481;52.588;22.472;2022-12-13T01:26:16;99065.91;;;-2.51;88.41
34034;BME280;63481;52.588;22.472;2022-12-13T01:27:06;99067.34;;;-2.52;88.37
34034;BME280;63481;52.588;22.472;2022-12-13T01:27:56;99065.22;;;-2.53;88.21
34034;BME280;63481;52.588;22.472;2022-12-13T01:28:47;99070.78;;;-2.52;88.07
34034;BME280;63481;52.588;22.472;2022-12-13T01:29:38;99077.30;;;-2.52;87.93
34034;BME280;63481;52.588;22.472;2022-12-13T01:30:27;99092.31;;;-2.54;87.91
34034;BME280;63481;52.588;22.472;2022-12-13T01:31:18;99081.39;;;-2.53;87.75
34034;BME280;63481;52.588;22.472;2022-12-13T01:32:08;99077.95;;;-2.54;87.80
34034;BME280;63481;52.588;22.472;2022-12-13T01:32:59;99075.16;;;-2.56;87.81
34034;BME280;63481;52.588;22.472;2022-12-13T01:33:49;99074.98;;;-2.59;87.74
34034;BME280;63481;52.588;22.472;2022-12-13T01:34:39;99094.21;;;-2.60;87.68
34034;BME280;63481;52.588;22.472;2022-12-13T01:35:32;99087.85;;;-2.61;87.62
34034;BME280;63481;52.588;22.472;2022-12-13T01:36:22;99083.42;;;-2.61;87.56
34034;BME280;63481;52.588;22.472;2022-12-13T01:37:12;99085.86;;;-2.63;87.47
34034;BME280;63481;52.588;22.472;2022-12-13T01:38:02;99080.45;;;-2.66;87.33
34034;BME280;63481;52.588;22.472;2022-12-13T01:38:53;99097.41;;;-2.66;87.23
34034;BME280;63481;52.588;22.472;2022-12-13T01:39:43;99091.08;;;-2.63;87.08
34034;BME280;63481;52.588;22.472;2022-12-13T01:40:32;99088.47;;;-2.63;87.01
34034;BME280;63481;52.588;22.472;2022-12-13T01:41:22;99082.41;;;-2.68;87.02
34034;BME280;63481;52.588;22.472;2022-12-13T01:42:13;99084.48;;;-2.71;86.97
34034;BME280;63481;52.588;22.472;2022-12-13T01:43:04;99079.09;;;-2.74;86.94
34034;BME280;63481;52.588;22.472;2022-12-13T01:43:58;99092.43;;;-2.77;87.00
34034;BME280;63481;52.588;22.472;2022-12-13T01:45:46;99077.28;;;-2.77;86.93
34034;BME280;63481;52.588;22.472;2022-12-13T01:46:36;99080.03;;;-2.79;86.91
34034;BME280;63481;52.588;22.472;2022-12-13T01:48:26;99090.28;;;-2.81;86.84
34034;BME280;63481;52.588;22.472;2022-12-13T01:49:17;99086.34;;;-2.85;86.84
34034;BME280;63481;52.588;22.472;2022-12-13T01:50:14;99091.70;;;-2.87;86.84
34034;BME280;63481;52.588;22.472;2022-12-13T01:51:03;99080.60;;;-2.89;86.73
34034;BME280;63481;52.588;22.472;2022-12-13T01:51:56;99106.34;;;-2.90;86.65
34034;BME280;63481;52.588;22.472;2022-12-13T01:52:46;99095.08;;;-2.90;86.68
34034;BME280;63481;52.588;22.472;2022-12-13T01:53:39;99093.46;;;-2.91;86.67
34034;BME280;63481;52.588;22.472;2022-12-13T01:54:31;99088.72;;;-2.92;86.66
34034;BME280;63481;52.588;22.472;2022-12-13T01:55:23;99096.55;;;-2.92;86.60
34034;BME280;63481;52.588;22.472;2022-12-13T01:56:16;99086.76;;;-2.94;86.53
34034;BME280;63481;52.588;22.472;2022-12-13T01:57:06;99088.83;;;-2.97;86.47
34034;BME280;63481;52.588;22.472;2022-12-13T01:57:57;99082.15;;;-2.96;86.42
34034;BME280;63481;52.588;22.472;2022-12-13T01:58:48;99098.31;;;-2.96;86.38
34034;BME280;63481;52.588;22.472;2022-12-13T01:59:40;99100.73;;;-2.99;86.39
34034;BME280;63481;52.588;22.472;2022-12-13T02:00:31;99091.39;;;-3.02;86.39
34034;BME280;63481;52.588;22.472;2022-12-13T02:01:22;99097.24;;;-3.04;86.35
34034;BME280;63481;52.588;22.472;2022-12-13T02:02:13;99096.77;;;-3.03;86.43
34034;BME280;63481;52.588;22.472;2022-12-13T02:03:04;99102.75;;;-3.07;86.42
34034;BME280;63481;52.588;22.472;2022-12-13T02:03:54;99099.66;;;-3.06;86.47
34034;BME280;63481;52.588;22.472;2022-12-13T02:04:47;99110.44;;;-3.05;86.43
34034;BME280;63481;52.588;22.472;2022-12-13T02:05:38;99100.78;;;-3.09;86.40
34034;BME280;63481;52.588;22.472;2022-12-13T02:06:40;99104.67;;;-3.13;86.42
34034;BME280;63481;52.588;22.472;2022-12-13T02:07:32;99108.07;;;-3.12;86.49
34034;BME280;63481;52.588;22.472;2022-12-13T02:08:23;99106.58;;;-3.15;86.48
34034;BME280;63481;52.588;22.472;2022-12-13T02:09:14;99120.09;;;-3.15;86.48
34034;BME280;63481;52.588;22.472;2022-12-13T02:10:05;99114.38;;;-3.19;86.52
34034;BME280;63481;52.588;22.472;2022-12-13T02:10:56;99109.64;;;-3.19;86.56
34034;BME280;63481;52.588;22.472;2022-12-13T02:11:46;99109.30;;;-3.20;86.59
34034;BME280;63481;52.588;22.472;2022-12-13T02:12:38;99110.47;;;-3.19;86.61
34034;BME280;63481;52.588;22.472;2022-12-13T02:13:29;99117.30;;;-3.18;86.58
34034;BME280;63481;52.588;22.472;2022-12-13T02:14:19;99106.88;;;-3.18;86.53
34034;BME280;63481;52.588;22.472;2022-12-13T02:15:10;99123.16;;;-3.20;86.49
34034;BME280;63481;52.588;22.472;2022-12-13T02:17:15;99118.10;;;-3.21;86.46
34034;BME280;63481;52.588;22.472;2022-12-13T02:20:22;99119.05;;;-3.22;86.31
34034;BME280;63481;52.588;22.472;2022-12-13T02:23:32;99132.86;;;-3.26;86.29
34034;BME280;63481;52.588;22.472;2022-12-13T02:26:46;99128.76;;;-3.28;86.15
34034;BME280;63481;52.588;22.472;2022-12-13T02:30:32;99131.74;;;-3.23;86.06
34034;BME280;63481;52.588;22.472;2022-12-13T02:31:21;99122.62;;;-3.23;86.01
34034;BME280;63481;52.588;22.472;2022-12-13T02:32:12;99125.09;;;-3.22;85.91
34034;BME280;63481;52.588;22.472;2022-12-13T02:33:04;99141.03;;;-3.25;85.95
34034;BME280;63481;52.588;22.472;2022-12-13T02:33:52;99136.77;;;-3.26;85.89
34034;BME280;63481;52.588;22.472;2022-12-13T02:34:54;99128.95;;;-3.26;85.88
34034;BME280;63481;52.588;22.472;2022-12-13T02:36:42;99127.61;;;-3.30;85.85
34034;BME280;63481;52.588;22.472;2022-12-13T02:37:36;99139.82;;;-3.30;85.84
34034;BME280;63481;52.588;22.472;2022-12-13T02:39:20;99144.20;;;-3.31;85.91
34034;BME280;63481;52.588;22.472;2022-12-13T02:40:22;99146.97;;;-3.32;85.95
34034;BME280;63481;52.588;22.472;2022-12-13T02:41:16;99137.84;;;-3.32;85.99
34034;BME280;63481;52.588;22.472;2022-12-13T02:42:07;99146.81;;;-3.31;85.96
34034;BME280;63481;52.588;22.472;2022-12-13T02:42:59;99151.20;;;-3.31;85.99
34034;BME280;63481;52.588;22.472;2022-12-13T02:43:52;99142.08;;;-3.31;85.95
34034;BME280;63481;52.588;22.472;2022-12-13T02:44:42;99141.28;;;-3.32;85.95
34034;BME280;63481;52.588;22.472;2022-12-13T02:45:33;99146.50;;;-3.32;85.96
34034;BME280;63481;52.588;22.472;2022-12-13T02:46:24;99152.50;;;-3.31;85.94
34034;BME280;63481;52.588;22.472;2022-12-13T02:47:16;99153.14;;;-3.33;85.98
34034;BME280;63481;52.588;22.472;2022-12-13T02:48:07;99142.05;;;-3.35;85.99
34034;BME280;63481;52.588;22.472;2022-12-13T02:48:58;99143.35;;;-3.35;86.04
34034;BME280;63481;52.588;22.472;2022-12-13T02:49:51;99160.92;;;-3.37;86.07
34034;BME280;63481;52.588;22.472;2022-12-13T02:50:42;99154.73;;;-3.36;86.06
34034;BME280;63481;52.588;22.472;2022-12-13T02:51:33;99149.39;;;-3.35;86.09
34034;BME280;63481;52.588;22.472;2022-12-13T02:52:25;99161.94;;;-3.34;86.12
34034;BME280;63481;52.588;22.472;2022-12-13T02:53:15;99150.34;;;-3.36;86.20
34034;BME280;63481;52.588;22.472;2022-12-13T02:54:05;99150.50;;;-3.37;86.21
34034;BME280;63481;52.588;22.472;2022-12-13T02:54:56;99148.84;;;-3.38;86.20
34034;BME280;63481;52.588;22.472;2022-12-13T02:55:46;99153.39;;;-3.40;86.24
34034;BME280;63481;52.588;22.472;2022-12-13T02:56:36;99150.78;;;-3.40;86.33
34034;BME280;63481;52.588;22.472;2022-12-13T02:57:36;99143.45;;;-3.41;86.32
34034;BME280;63481;52.588;22.472;2022-12-13T02:58:29;99145.23;;;-3.41;86.37
34034;BME280;63481;52.588;22.472;2022-12-13T02:59:20;99151.07;;;-3.43;86.37
34034;BME280;63481;52.588;22.472;2022-12-13T03:00:18;99153.33;;;-3.44;86.44
34034;BME280;63481;52.588;22.472;2022-12-13T03:01:19;99149.42;;;-3.44;86.54
34034;BME280;63481;52.588;22.472;2022-12-13T03:05:29;99147.48;;;-3.42;86.64
34034;BME280;63481;52.588;22.472;2022-12-13T03:05:46;99157.91;;;-3.42;86.67
34034;BME280;63481;52.588;22.472;2022-12-13T03:07:57;99149.67;;;-3.38;86.73
34034;BME280;63481;52.588;22.472;2022-12-13T03:13:07;99152.50;;;-3.31;86.87
34034;BME280;63481;52.588;22.472;2022-12-13T03:14:15;99155.81;;;-3.29;86.80
34034;BME280;63481;52.588;22.472;2022-12-13T03:16:02;99152.69;;;-3.29;86.64
34034;BME280;63481;52.588;22.472;2022-12-13T03:16:52;99143.44;;;-3.27;86.57
34034;BME280;63481;52.588;22.472;2022-12-13T03:17:46;99149.61;;;-3.28;86.55
34034;BME280;63481;52.588;22.472;2022-12-13T03:18:34;99149.96;;;-3.27;86.53
34034;BME280;63481;52.588;22.472;2022-12-13T03:19:25;99146.72;;;-3.25;86.49
34034;BME280;63481;52.588;22.472;2022-12-13T03:20:16;99153.58;;;-3.24;86.52
34034;BME280;63481;52.588;22.472;2022-12-13T03:21:07;99152.28;;;-3.24;86.54
34034;BME280;63481;52.588;22.472;2022-12-13T03:21:57;99153.90;;;-3.23;86.47
34034;BME280;63481;52.588;22.472;2022-12-13T03:22:47;99148.55;;;-3.22;86.47
34034;BME280;63481;52.588;22.472;2022-12-13T03:23:37;99157.33;;;-3.23;86.43
34034;BME280;63481;52.588;22.472;2022-12-13T03:24:27;99149.03;;;-3.22;86.37
34034;BME280;63481;52.588;22.472;2022-12-13T03:25:16;99142.67;;;-3.24;86.32
34034;BME280;63481;52.588;22.472;2022-12-13T03:26:11;99143.80;;;-3.26;86.25
34034;BME280;63481;52.588;22.472;2022-12-13T03:27:01;99144.27;;;-3.27;86.22
34034;BME280;63481;52.588;22.472;2022-12-13T03:27:51;99149.29;;;-3.29;86.20
34034;BME280;63481;52.588;22.472;2022-12-13T03:28:41;99148.30;;;-3.28;86.26
34034;BME280;63481;52.588;22.472;2022-12-13T03:29:31;99148.59;;;-3.31;86.28
34034;BME280;63481;52.588;22.472;2022-12-13T03:30:20;99155.11;;;-3.31;86.28
34034;BME280;63481;52.588;22.472;2022-12-13T03:31:10;99151.71;;;-3.32;86.21
34034;BME280;63481;52.588;22.472;2022-12-13T03:32:00;99145.67;;;-3.32;86.16
34034;BME280;63481;52.588;22.472;2022-12-13T03:32:50;99146.97;;;-3.32;86.11
34034;BME280;63481;52.588;22.472;2022-12-13T03:33:39;99154.16;;;-3.30;86.04
34034;BME280;63481;52.588;22.472;2022-12-13T03:34:29;99145.19;;;-3.32;85.97
34034;BME280;63481;52.588;22.472;2022-12-13T03:35:19;99151.52;;;-3.34;85.92
34034;BME280;63481;52.588;22.472;2022-12-13T03:36:09;99150.81;;;-3.36;85.90
34034;BME280;63481;52.588;22.472;2022-12-13T03:37:00;99160.29;;;-3.35;85.98
34034;BME280;63481;52.588;22.472;2022-12-13T03:37:49;99153.14;;;-3.33;85.97
34034;BME280;63481;52.588;22.472;2022-12-13T03:38:40;99143.83;;;-3.36;85.95
34034;BME280;63481;52.588;22.472;2022-12-13T03:39:30;99149.39;;;-3.35;85.88
34034;BME280;63481;52.588;22.472;2022-12-13T03:40:19;99164.13;;;-3.39;85.78
34034;BME280;63481;52.588;22.472;2022-12-13T03:41:11;99155.65;;;-3.41;85.85
34034;BME280;63481;52.588;22.472;2022-12-13T03:42:01;99145.86;;;-3.43;85.84
34034;BME280;63481;52.588;22.472;2022-12-13T03:42:51;99154.83;;;-3.42;85.73
34034;BME280;63481;52.588;22.472;2022-12-13T03:43:40;99168.68;;;-3.41;85.66
34034;BME280;63481;52.588;22.472;2022-12-13T03:44:30;99169.03;;;-3.40;85.56
34034;BME280;63481;52.588;22.472;2022-12-13T03:45:20;99155.02;;;-3.39;85.56
34034;BME280;63481;52.588;22.472;2022-12-13T04:04:44;99160.63;;;-3.62;85.63
34034;BME280;63481;52.588;22.472;2022-12-13T04:05:35;99162.34;;;-3.66;85.60
34034;BME280;63481;52.588;22.472;2022-12-13T04:06:28;99178.75;;;-3.70;85.54
34034;BME280;63481;52.588;22.472;2022-12-13T04:07:18;99179.42;;;-3.68;85.59
34034;BME280;63481;52.588;22.472;2022-12-13T04:08:09;99175.17;;;-3.69;85.65
34034;BME280;63481;52.588;22.472;2022-12-13T04:09:00;99170.05;;;-3.74;85.60
34034;BME280;63481;52.588;22.472;2022-12-13T04:09:50;99180.74;;;-3.77;85.59
34034;BME280;63481;52.588;22.472;2022-12-13T04:10:41;99184.61;;;-3.81;85.70
34034;BME280;63481;52.588;22.472;2022-12-13T04:11:33;99179.05;;;-3.82;85.78
34034;BME280;63481;52.588;22.472;2022-12-13T04:12:42;99179.05;;;-3.82;85.89
34034;BME280;63481;52.588;22.472;2022-12-13T04:13:52;99179.20;;;-3.84;85.93
34034;BME280;63481;52.588;22.472;2022-12-13T04:14:43;99182.64;;;-3.83;86.03
34034;BME280;63481;52.588;22.472;2022-12-13T04:15:33;99184.69;;;-3.87;85.95
34034;BME280;63481;52.588;22.472;2022-12-13T04:16:23;99181.19;;;-3.91;85.97
34034;BME280;63481;52.588;22.472;2022-12-13T04:17:13;99192.39;;;-3.95;86.08
34034;BME280;63481;52.588;22.472;2022-12-13T04:18:04;99189.31;;;-3.94;86.18
34034;BME280;63481;52.588;22.472;2022-12-13T04:18:55;99188.33;;;-3.93;86.23
34034;BME280;63481;52.588;22.472;2022-12-13T04:19:46;99194.99;;;-3.95;86.32
34034;BME280;63481;52.588;22.472;2022-12-13T04:20:36;99190.06;;;-3.98;86.29
34034;BME280;63481;52.588;22.472;2022-12-13T04:21:28;99192.66;;;-3.98;86.47
34034;BME280;63481;52.588;22.472;2022-12-13T04:22:18;99191.98;;;-4.00;86.51
34034;BME280;63481;52.588;22.472;2022-12-13T04:23:08;99190.48;;;-4.02;86.49
34034;BME280;63481;52.588;22.472;2022-12-13T04:23:59;99192.39;;;-4.04;86.59
34034;BME280;63481;52.588;22.472;2022-12-13T04:24:49;99196.38;;;-4.10;86.46
34034;BME280;63481;52.588;22.472;2022-12-13T04:25:40;99198.50;;;-4.09;86.60
34034;BME280;63481;52.588;22.472;2022-12-13T04:26:30;99195.07;;;-4.10;86.66
34034;BME280;63481;52.588;22.472;2022-12-13T04:27:21;99199.48;;;-4.10;86.74
34034;BME280;63481;52.588;22.472;2022-12-13T04:28:11;99195.22;;;-4.11;86.89
34034;BME280;63481;52.588;22.472;2022-12-13T04:29:02;99198.30;;;-4.12;86.92
34034;BME280;63481;52.588;22.472;2022-12-13T04:29:52;99199.95;;;-4.11;86.93
34034;BME280;63481;52.588;22.472;2022-12-13T04:30:43;99204.18;;;-4.10;87.02
34034;BME280;63481;52.588;22.472;2022-12-13T04:31:33;99201.10;;;-4.09;87.04
34034;BME280;63481;52.588;22.472;2022-12-13T04:32:24;99203.03;;;-4.11;86.90
34034;BME280;63481;52.588;22.472;2022-12-13T04:33:17;99208.98;;;-4.15;86.95
34034;BME280;63481;52.588;22.472;2022-12-13T04:34:09;99198.30;;;-4.12;87.08
34034;BME280;63481;52.588;22.472;2022-12-13T04:34:59;99201.37;;;-4.12;87.04
34034;BME280;63481;52.588;22.472;2022-12-13T04:35:50;99201.73;;;-4.11;87.06
34034;BME280;63481;52.588;22.472;2022-12-13T04:36:41;99202.55;;;-4.11;87.08
34034;BME280;63481;52.588;22.472;2022-12-13T04:37:31;99204.13;;;-4.14;86.99
34034;BME280;63481;52.588;22.472;2022-12-13T04:38:25;99201.95;;;-4.18;86.97
34034;BME280;63481;52.588;22.472;2022-12-13T04:39:15;99200.50;;;-4.17;87.04
34034;BME280;63481;52.588;22.472;2022-12-13T04:40:07;99215.45;;;-4.19;87.02
34034;BME280;63481;52.588;22.472;2022-12-13T04:41:12;99201.45;;;-4.18;87.01
34034;BME280;63481;52.588;22.472;2022-12-13T04:41:57;99207.28;;;-4.20;87.08
34034;BME280;63481;52.588;22.472;2022-12-13T04:42:47;99207.95;;;-4.18;87.10
34034;BME280;63481;52.588;22.472;2022-12-13T04:43:38;99203.78;;;-4.15;87.16
34034;BME280;63481;52.588;22.472;2022-12-13T04:44:29;99213.16;;;-4.18;87.13
34034;BME280;63481;52.588;22.472;2022-12-13T04:45:20;99200.58;;;-4.23;87.04
34034;BME280;63481;52.588;22.472;2022-12-13T04:46:11;99209.48;;;-4.25;87.05
34034;BME280;63481;52.588;22.472;2022-12-13T04:47:02;99206.88;;;-4.25;87.14
34034;BME280;63481;52.588;22.472;2022-12-13T04:47:53;99208.30;;;-4.27;87.17
34034;BME280;63481;52.588;22.472;2022-12-13T04:48:46;99214.34;;;-4.26;87.22
34034;BME280;63481;52.588;22.472;2022-12-13T04:49:36;99210.58;;;-4.28;87.23
34034;BME280;63481;52.588;22.472;2022-12-13T04:50:29;99207.36;;;-4.26;87.35
34034;BME280;63481;52.588;22.472;2022-12-13T04:51:20;99212.36;;;-4.28;87.29
34034;BME280;63481;52.588;22.472;2022-12-13T04:52:10;99215.44;;;-4.29;87.31
34034;BME280;63481;52.588;22.472;2022-12-13T04:53:02;99218.72;;;-4.27;87.38
34034;BME280;63481;52.588;22.472;2022-12-13T04:53:53;99221.11;;;-4.29;87.37
34034;BME280;63481;52.588;22.472;2022-12-13T04:54:43;99220.44;;;-4.31;87.36
34034;BME280;63481;52.588;22.472;2022-12-13T04:55:35;99221.41;;;-4.32;87.46
34034;BME280;63481;52.588;22.472;2022-12-13T04:56:26;99214.67;;;-4.35;87.41
34034;BME280;63481;52.588;22.472;2022-12-13T04:57:16;99231.11;;;-4.34;87.43
34034;BME280;63481;52.588;22.472;2022-12-13T04:58:06;99222.84;;;-4.34;87.53
34034;BME280;63481;52.588;22.472;2022-12-13T04:58:56;99223.52;;;-4.32;87.61
34034;BME280;63481;52.588;22.472;2022-12-13T04:59:47;99227.48;;;-4.37;87.37
34034;BME280;63481;52.588;22.472;2022-12-13T05:00:38;99232.16;;;-4.41;87.42
34034;BME280;63481;52.588;22.472;2022-12-13T05:01:29;99230.09;;;-4.37;87.61
34034;BME280;63481;52.588;22.472;2022-12-13T05:02:20;99228.19;;;-4.35;87.66
34034;BME280;63481;52.588;22.472;2022-12-13T05:03:10;99223.58;;;-4.37;87.65
34034;BME280;63481;52.588;22.472;2022-12-13T05:04:02;99227.98;;;-4.38;87.69
34034;BME280;63481;52.588;22.472;2022-12-13T05:04:52;99221.13;;;-4.39;87.74
34034;BME280;63481;52.588;22.472;2022-12-13T05:05:43;99227.16;;;-4.38;87.79
34034;BME280;63481;52.588;22.472;2022-12-13T05:06:33;99229.68;;;-4.42;87.68
34034;BME280;63481;52.588;22.472;2022-12-13T05:07:24;99227.55;;;-4.43;87.73
34034;BME280;63481;52.588;22.472;2022-12-13T05:08:15;99223.17;;;-4.42;87.75
34034;BME280;63481;52.588;22.472;2022-12-13T05:09:05;99227.28;;;-4.40;87.80
34034;BME280;63481;52.588;22.472;2022-12-13T05:09:58;99228.26;;;-4.41;87.80